Time;durP1;ratioP1;P1;durP2;ratioP2;P2;SDS_P1;SDS_P2;PMS_P1;PMS_P2;Temp;Humidity;BMP_temperature;BMP_pressure;BME280_temperature;BME280_humidity;BME280_pressure;Samples;Min_cycle;Max_cycle;Signal;HPM_P1;HPM_P2
2023/03/25 00:00:23;;;;;;;1.17;0.40;;;;;;;;;;5021447;28;20052;-68
2023/03/25 00:02:52;;;;;;;1.10;0.40;;;;;;;;;;5022129;28;20144;-73
2023/03/25 00:05:21;;;;;;;0.20;0.20;;;;;;;;;;4982537;28;1129546;-70
2023/03/25 00:07:51;;;;;;;0.82;0.82;;;;;;;;;;5023868;28;20518;-62
2023/03/25 00:10:21;;;;;;;1.38;0.20;;;;;;;;;;5022613;28;20053;-70
2023/03/25 00:12:49;;;;;;;0.20;0.20;;;;;;;;;;5025366;28;20172;-67
2023/03/25 00:15:18;;;;;;;0.20;0.20;;;;;;;;;;5021601;28;20063;-72
2023/03/25 00:17:46;;;;;;;0.80;0.20;;;;;;;;;;5024794;28;20083;-69
2023/03/25 00:20:15;;;;;;;0.30;0.30;;;;;;;;;;5021547;28;20049;-72
2023/03/25 00:22:43;;;;;;;0.10;0.10;;;;;;;;;;5024048;28;20661;-74
2023/03/25 00:25:15;;;;;;;0.20;0.20;;;;;;;;;;5021843;28;20147;-62
2023/03/25 00:27:47;;;;;;;0.38;0.38;;;;;;;;;;5022596;28;20450;-71
2023/03/25 00:30:16;;;;;;;0.22;0.22;;;;;;;;;;5022039;28;20045;-72
2023/03/25 00:32:48;;;;;;;1.05;0.30;;;;;;;;;;5024492;28;20056;-72
2023/03/25 00:35:18;;;;;;;1.98;0.30;;;;;;;;;;5024115;28;20052;-72
2023/03/25 00:37:56;;;;;;;2.65;0.40;;;;;;;;;;5022232;28;20067;-74
2023/03/25 00:40:25;;;;;;;1.27;0.20;;;;;;;;;;5023640;28;20470;-72
2023/03/25 00:42:54;;;;;;;0.30;0.17;;;;;;;;;;5024775;28;20053;-74
2023/03/25 00:45:23;;;;;;;0.10;0.10;;;;;;;;;;5021252;28;20091;-72
2023/03/25 00:47:51;;;;;;;0.10;0.10;;;;;;;;;;5020997;28;20053;-74
2023/03/25 00:50:20;;;;;;;0.22;0.22;;;;;;;;;;5023327;28;20045;-67
2023/03/25 00:52:49;;;;;;;0.20;0.20;;;;;;;;;;5022369;28;20045;-70
2023/03/25 00:55:17;;;;;;;0.55;0.28;;;;;;;;;;5024569;28;20049;-73
2023/03/25 00:57:45;;;;;;;0.20;0.20;;;;;;;;;;5019805;28;20057;-61
2023/03/25 01:00:16;;;;;;;0.13;0.13;;;;;;;;;;5021785;28;20046;-64
2023/03/25 01:02:45;;;;;;;0.10;0.10;;;;;;;;;;5018685;28;20168;-69
2023/03/25 01:05:14;;;;;;;0.17;0.17;;;;;;;;;;5009857;28;20168;-72
2023/03/25 01:07:42;;;;;;;0.75;0.22;;;;;;;;;;5001908;28;20112;-73
2023/03/25 01:10:11;;;;;;;1.45;0.15;;;;;;;;;;5003161;28;20049;-61
2023/03/25 01:12:39;;;;;;;0.20;0.20;;;;;;;;;;5002200;28;20076;-64
2023/03/25 01:15:08;;;;;;;0.10;0.10;;;;;;;;;;4998598;28;20057;-66
2023/03/25 01:17:38;;;;;;;1.05;0.70;;;;;;;;;;4998274;28;20045;-75
2023/03/25 01:20:07;;;;;;;0.40;0.40;;;;;;;;;;5003320;28;20539;-75
2023/03/25 01:22:36;;;;;;;0.10;0.10;;;;;;;;;;5003528;28;20476;-71
2023/03/25 01:25:05;;;;;;;0.40;0.40;;;;;;;;;;5002511;28;20064;-68
2023/03/25 01:27:33;;;;;;;0.20;0.20;;;;;;;;;;5002556;28;20135;-74
2023/03/25 01:30:02;;;;;;;7.13;0.35;;;;;;;;;;4999659;28;20052;-71
2023/03/25 01:32:30;;;;;;;0.10;0.10;;;;;;;;;;5000519;28;20045;-71
2023/03/25 01:35:00;;;;;;;0.20;0.20;;;;;;;;;;5004413;28;20053;-74
2023/03/25 01:37:32;;;;;;;0.98;0.57;;;;;;;;;;5001152;28;20060;-75
2023/03/25 01:40:01;;;;;;;0.10;0.10;;;;;;;;;;5005057;28;20486;-70
2023/03/25 01:42:31;;;;;;;0.10;0.10;;;;;;;;;;4999934;28;20050;-70
2023/03/25 01:45:13;;;;;;;3.20;0.28;;;;;;;;;;5006145;28;20057;-72
2023/03/25 01:47:42;;;;;;;0.10;0.10;;;;;;;;;;5004638;28;20132;-74
2023/03/25 01:50:13;;;;;;;0.55;0.20;;;;;;;;;;5002316;28;20686;-66
2023/03/25 01:52:44;;;;;;;1.15;0.28;;;;;;;;;;5003848;28;20112;-72
2023/03/25 01:55:13;;;;;;;0.75;0.65;;;;;;;;;;5001443;28;20042;-73
2023/03/25 01:57:45;;;;;;;0.30;0.30;;;;;;;;;;5002977;28;20060;-72
2023/03/25 02:00:14;;;;;;;0.80;0.25;;;;;;;;;;5003081;28;20067;-69
2023/03/25 02:02:44;;;;;;;0.17;0.13;;;;;;;;;;5003169;28;20055;-75
2023/03/25 02:05:18;;;;;;;0.52;0.30;;;;;;;;;;5041467;22;20088;-63
2023/03/25 02:07:48;;;;;;;0.35;0.20;;;;;;;;;;5024226;28;20061;-63
2023/03/25 02:10:17;;;;;;;0.20;0.20;;;;;;;;;;5019519;28;20052;-65
2023/03/25 02:12:46;;;;;;;0.17;0.15;;;;;;;;;;5022132;28;20457;-64
2023/03/25 02:15:15;;;;;;;0.10;0.10;;;;;;;;;;5015910;28;20049;-65
2023/03/25 02:17:49;;;;;;;3.63;0.40;;;;;;;;;;5018852;28;20133;-63
2023/03/25 02:20:47;;;;;;;1.83;0.50;;;;;;;;;;5019202;28;20057;-64
2023/03/25 02:23:33;;;;;;;0.38;0.20;;;;;;;;;;4960121;28;20051;-62
2023/03/25 02:26:12;;;;;;;0.22;0.20;;;;;;;;;;4999468;28;20038;-65
2023/03/25 02:28:46;;;;;;;0.10;0.10;;;;;;;;;;5022994;28;20060;-64
2023/03/25 02:31:27;;;;;;;0.17;0.17;;;;;;;;;;5016781;28;20076;-63
2023/03/25 02:34:16;;;;;;;0.10;0.10;;;;;;;;;;5013593;28;20053;-63
2023/03/25 02:37:02;;;;;;;0.38;0.20;;;;;;;;;;5019551;28;20115;-62
2023/03/25 02:39:36;;;;;;;0.10;0.10;;;;;;;;;;5021759;28;20546;-66
2023/03/25 02:42:06;;;;;;;0.10;0.10;;;;;;;;;;5018637;28;20045;-66
2023/03/25 02:44:36;;;;;;;3.10;0.38;;;;;;;;;;5022181;28;20494;-63
2023/03/25 02:47:07;;;;;;;0.13;0.13;;;;;;;;;;5023163;28;20061;-65
2023/03/25 02:49:37;;;;;;;0.10;0.10;;;;;;;;;;5019511;28;20132;-65
2023/03/25 02:52:10;;;;;;;0.35;0.25;;;;;;;;;;5020385;28;20046;-65
2023/03/25 02:54:41;;;;;;;0.10;0.10;;;;;;;;;;5024976;28;20045;-64
2023/03/25 02:57:12;;;;;;;0.30;0.30;;;;;;;;;;5018321;28;20608;-63
2023/03/25 02:59:40;;;;;;;0.20;0.20;;;;;;;;;;5022427;28;20050;-63
2023/03/25 03:02:10;;;;;;;1.10;0.20;;;;;;;;;;5020206;28;20060;-64
2023/03/25 03:04:46;;;;;;;0.90;0.90;;;;;;;;;;5022674;28;20063;-63
2023/03/25 03:07:19;;;;;;;0.22;0.20;;;;;;;;;;5019055;28;20133;-63
2023/03/25 03:09:52;;;;;;;0.10;0.10;;;;;;;;;;5020326;28;20425;-64
2023/03/25 03:12:27;;;;;;;0.73;0.30;;;;;;;;;;5019309;28;20052;-63
2023/03/25 03:15:11;;;;;;;1.17;0.30;;;;;;;;;;5014266;28;20505;-64
2023/03/25 03:17:43;;;;;;;1.23;0.75;;;;;;;;;;5020927;28;20049;-62
2023/03/25 03:20:17;;;;;;;1.08;0.20;;;;;;;;;;5021593;28;20671;-64
2023/03/25 03:22:51;;;;;;;0.22;0.22;;;;;;;;;;5021660;28;20425;-63
2023/03/25 03:25:27;;;;;;;0.43;0.40;;;;;;;;;;5020482;28;20108;-63
2023/03/25 03:27:58;;;;;;;0.15;0.15;;;;;;;;;;5011747;28;20064;-64
2023/03/25 03:30:29;;;;;;;1.05;0.30;;;;;;;;;;5019742;28;20120;-63
2023/03/25 03:33:01;;;;;;;2.67;0.20;;;;;;;;;;5018457;28;20056;-64
2023/03/25 03:35:31;;;;;;;0.20;0.20;;;;;;;;;;5019526;28;20059;-63
2023/03/25 03:38:01;;;;;;;0.00;0.00;;;;;;;;;;5020024;28;20140;-63
2023/03/25 03:40:32;;;;;;;0.10;0.10;;;;;;;;;;5021504;28;20136;-63
2023/03/25 03:43:02;;;;;;;0.15;0.13;;;;;;;;;;5019186;28;20077;-62
2023/03/25 03:45:32;;;;;;;0.40;0.28;;;;;;;;;;5018517;28;20049;-64
2023/03/25 03:48:02;;;;;;;0.10;0.10;;;;;;;;;;5020884;28;20041;-63
2023/03/25 03:50:32;;;;;;;0.68;0.22;;;;;;;;;;5020183;28;20061;-63
2023/03/25 03:53:04;;;;;;;2.22;0.35;;;;;;;;;;5021064;28;20042;-64
2023/03/25 03:55:36;;;;;;;0.35;0.35;;;;;;;;;;5022243;28;20072;-64
2023/03/25 03:58:08;;;;;;;0.10;0.10;;;;;;;;;;5019840;28;20129;-63
2023/03/25 04:00:39;;;;;;;0.15;0.15;;;;;;;;;;5014502;28;20053;-63
2023/03/25 04:03:13;;;;;;;1.85;0.85;;;;;;;;;;5021580;28;20049;-64
2023/03/25 04:05:44;;;;;;;0.10;0.10;;;;;;;;;;5023049;28;20065;-65
2023/03/25 04:08:15;;;;;;;0.10;0.10;;;;;;;;;;5023968;28;20421;-62
2023/03/25 04:10:51;;;;;;;0.20;0.20;;;;;;;;;;5023802;28;20055;-66
2023/03/25 04:13:21;;;;;;;0.20;0.20;;;;;;;;;;5023478;28;20072;-66
2023/03/25 04:15:49;;;;;;;2.20;0.13;;;;;;;;;;5020890;28;20516;-63
2023/03/25 04:18:22;;;;;;;0.10;0.10;;;;;;;;;;5024330;28;20067;-63
2023/03/25 04:20:50;;;;;;;4.68;0.20;;;;;;;;;;5023078;28;20056;-63
2023/03/25 04:23:20;;;;;;;0.55;0.38;;;;;;;;;;5025266;28;20048;-62
2023/03/25 04:25:51;;;;;;;0.10;0.10;;;;;;;;;;5023969;28;20144;-63
2023/03/25 04:28:22;;;;;;;0.10;0.10;;;;;;;;;;5023158;28;20045;-65
2023/03/25 04:30:54;;;;;;;1.40;0.25;;;;;;;;;;5020663;28;20049;-64
2023/03/25 04:33:23;;;;;;;0.57;0.20;;;;;;;;;;5025127;28;20049;-66
2023/03/25 04:35:52;;;;;;;1.05;0.20;;;;;;;;;;5023267;28;20081;-62
2023/03/25 04:38:21;;;;;;;0.82;0.20;;;;;;;;;;5024194;28;20053;-66
2023/03/25 04:40:51;;;;;;;0.10;0.10;;;;;;;;;;5021695;28;20053;-63
2023/03/25 04:43:19;;;;;;;0.20;0.20;;;;;;;;;;5024424;28;20084;-62
2023/03/25 04:45:52;;;;;;;0.10;0.10;;;;;;;;;;5021207;28;20816;-64
2023/03/25 04:48:24;;;;;;;4.28;0.30;;;;;;;;;;5004173;28;20045;-63
2023/03/25 04:50:54;;;;;;;0.68;0.68;;;;;;;;;;5017667;28;20409;-62
2023/03/25 04:53:23;;;;;;;0.20;0.20;;;;;;;;;;5024948;28;20114;-64
2023/03/25 04:55:53;;;;;;;4.68;0.43;;;;;;;;;;5021163;28;20050;-64
2023/03/25 04:58:21;;;;;;;1.27;0.40;;;;;;;;;;5023649;28;20386;-65
2023/03/25 05:00:50;;;;;;;0.10;0.10;;;;;;;;;;5020766;28;20059;-64
2023/03/25 05:03:22;;;;;;;0.22;0.22;;;;;;;;;;5021270;28;20048;-62
2023/03/25 05:05:51;;;;;;;0.30;0.17;;;;;;;;;;5021041;28;20049;-62
2023/03/25 05:08:21;;;;;;;0.10;0.10;;;;;;;;;;5024047;28;20041;-65
2023/03/25 05:10:49;;;;;;;0.13;0.13;;;;;;;;;;5024745;28;20069;-64
2023/03/25 05:13:19;;;;;;;0.47;0.20;;;;;;;;;;5022587;28;20133;-64
2023/03/25 05:15:48;;;;;;;1.85;0.20;;;;;;;;;;5022971;28;20053;-62
2023/03/25 05:18:17;;;;;;;0.20;0.20;;;;;;;;;;5019118;28;20727;-63
2023/03/25 05:20:49;;;;;;;0.10;0.10;;;;;;;;;;5020880;28;20445;-65
2023/03/25 05:23:18;;;;;;;1.75;0.28;;;;;;;;;;5024505;28;20053;-63
2023/03/25 05:25:47;;;;;;;0.10;0.10;;;;;;;;;;5018952;28;20136;-63
2023/03/25 05:28:16;;;;;;;0.95;0.17;;;;;;;;;;5023549;28;20045;-67
2023/03/25 05:30:46;;;;;;;0.20;0.20;;;;;;;;;;5020019;28;20650;-63
2023/03/25 05:33:16;;;;;;;2.83;0.40;;;;;;;;;;5018102;28;20473;-63
2023/03/25 05:35:44;;;;;;;4.85;0.50;;;;;;;;;;5023440;28;20046;-63
2023/03/25 05:38:17;;;;;;;3.75;0.47;;;;;;;;;;5020801;28;20064;-64
2023/03/25 05:40:46;;;;;;;0.10;0.10;;;;;;;;;;5020211;28;20136;-63
2023/03/25 05:43:15;;;;;;;7.32;0.47;;;;;;;;;;5024286;28;20041;-63
2023/03/25 05:45:45;;;;;;;0.22;0.22;;;;;;;;;;5019183;28;20586;-63
2023/03/25 05:48:15;;;;;;;0.10;0.10;;;;;;;;;;5022945;28;20075;-63
2023/03/25 05:50:43;;;;;;;10.20;0.63;;;;;;;;;;5023520;28;20156;-62
2023/03/25 05:53:14;;;;;;;0.10;0.10;;;;;;;;;;5024010;28;20049;-63
2023/03/25 05:55:42;;;;;;;0.10;0.10;;;;;;;;;;5024846;28;20084;-64
2023/03/25 05:58:11;;;;;;;0.10;0.10;;;;;;;;;;5022227;28;20049;-64
2023/03/25 06:00:39;;;;;;;0.13;0.13;;;;;;;;;;5019668;28;20403;-64
2023/03/25 06:03:08;;;;;;;0.22;0.20;;;;;;;;;;5011566;28;20049;-62
2023/03/25 06:05:40;;;;;;;0.75;0.20;;;;;;;;;;5025029;28;20057;-63
2023/03/25 06:08:08;;;;;;;0.10;0.10;;;;;;;;;;5016992;28;20045;-63
2023/03/25 06:10:37;;;;;;;0.43;0.10;;;;;;;;;;5020452;28;20045;-63
2023/03/25 06:13:05;;;;;;;0.10;0.10;;;;;;;;;;5017753;28;20069;-63
2023/03/25 06:15:38;;;;;;;0.20;0.20;;;;;;;;;;5020534;28;20516;-62
2023/03/25 06:18:09;;;;;;;0.10;0.10;;;;;;;;;;5017143;28;20103;-62
2023/03/25 06:20:39;;;;;;;0.10;0.10;;;;;;;;;;5020205;28;20375;-62
2023/03/25 06:23:08;;;;;;;0.10;0.10;;;;;;;;;;5023225;28;20053;-65
2023/03/25 06:25:37;;;;;;;0.10;0.10;;;;;;;;;;5021421;28;20049;-63
2023/03/25 06:28:05;;;;;;;0.20;0.20;;;;;;;;;;5022694;28;20061;-65
2023/03/25 06:30:38;;;;;;;0.10;0.10;;;;;;;;;;5019588;28;20132;-61
2023/03/25 06:33:15;;;;;;;0.10;0.10;;;;;;;;;;5022612;28;20060;-64
2023/03/25 06:36:17;;;;;;;0.10;0.10;;;;;;;;;;5012943;28;20057;-63
2023/03/25 06:38:54;;;;;;;1.08;0.22;;;;;;;;;;5021175;28;20064;-63
2023/03/25 06:41:26;;;;;;;0.00;0.00;;;;;;;;;;5012932;28;20049;-62
2023/03/25 06:43:54;;;;;;;0.13;0.13;;;;;;;;;;5019910;28;20140;-64
2023/03/25 06:46:22;;;;;;;0.52;0.47;;;;;;;;;;5022441;28;20064;-63
2023/03/25 06:48:51;;;;;;;0.10;0.10;;;;;;;;;;5021974;28;20073;-63
2023/03/25 06:51:22;;;;;;;0.65;0.28;;;;;;;;;;5020860;28;20095;-63
2023/03/25 06:53:51;;;;;;;0.10;0.10;;;;;;;;;;5022195;28;20056;-62
2023/03/25 06:56:19;;;;;;;0.00;0.00;;;;;;;;;;5023494;28;20068;-63
2023/03/25 06:58:47;;;;;;;0.15;0.15;;;;;;;;;;5022255;28;20076;-62
2023/03/25 07:01:16;;;;;;;0.20;0.20;;;;;;;;;;5018547;28;20068;-62
2023/03/25 07:03:44;;;;;;;0.15;0.15;;;;;;;;;;5019268;28;20505;-64
2023/03/25 07:06:16;;;;;;;0.10;0.10;;;;;;;;;;5018453;28;20561;-64
2023/03/25 07:08:46;;;;;;;0.10;0.10;;;;;;;;;;5020338;28;21009;-64
2023/03/25 07:11:15;;;;;;;0.10;0.10;;;;;;;;;;5022935;28;20132;-62
2023/03/25 07:13:43;;;;;;;0.77;0.20;;;;;;;;;;5028662;28;20050;-65
2023/03/25 07:16:12;;;;;;;0.10;0.10;;;;;;;;;;5021876;28;20407;-63
2023/03/25 07:18:42;;;;;;;0.32;0.30;;;;;;;;;;5020808;28;20557;-64
2023/03/25 07:21:10;;;;;;;0.00;0.00;;;;;;;;;;5021918;28;20168;-63
2023/03/25 07:23:38;;;;;;;0.52;0.28;;;;;;;;;;5024366;28;20123;-62
2023/03/25 07:26:09;;;;;;;0.15;0.10;;;;;;;;;;5022690;28;20072;-63
2023/03/25 07:28:38;;;;;;;0.10;0.10;;;;;;;;;;5024488;28;20118;-62
2023/03/25 07:31:07;;;;;;;0.10;0.10;;;;;;;;;;5023204;28;20049;-63
2023/03/25 07:33:36;;;;;;;0.10;0.10;;;;;;;;;;5025439;28;20053;-63
2023/03/25 07:36:05;;;;;;;0.10;0.10;;;;;;;;;;5020536;28;20065;-63
2023/03/25 07:38:34;;;;;;;0.10;0.10;;;;;;;;;;5022207;28;20064;-63
2023/03/25 07:41:05;;;;;;;0.10;0.10;;;;;;;;;;5022254;28;20045;-63
2023/03/25 07:43:35;;;;;;;0.10;0.10;;;;;;;;;;5026262;28;20128;-62
2023/03/25 07:46:03;;;;;;;0.38;0.38;;;;;;;;;;5021411;28;20054;-65
2023/03/25 07:48:32;;;;;;;0.10;0.10;;;;;;;;;;5025024;28;20056;-65
2023/03/25 07:51:00;;;;;;;0.10;0.10;;;;;;;;;;5025109;28;20053;-63
2023/03/25 07:53:29;;;;;;;0.10;0.10;;;;;;;;;;5023079;28;20056;-63
2023/03/25 07:55:57;;;;;;;0.10;0.10;;;;;;;;;;5021741;28;20053;-62
2023/03/25 07:58:25;;;;;;;0.20;0.20;;;;;;;;;;5024235;28;20089;-65
2023/03/25 08:00:58;;;;;;;0.10;0.10;;;;;;;;;;5021359;28;20580;-63
2023/03/25 08:03:27;;;;;;;0.10;0.10;;;;;;;;;;5022207;28;20652;-62
2023/03/25 08:05:55;;;;;;;0.65;0.13;;;;;;;;;;5021940;28;20049;-62
2023/03/25 08:08:24;;;;;;;0.10;0.10;;;;;;;;;;5023535;28;20073;-63
2023/03/25 08:10:53;;;;;;;0.10;0.10;;;;;;;;;;5024151;28;20158;-63
2023/03/25 08:13:21;;;;;;;0.15;0.15;;;;;;;;;;5024181;28;20046;-62
2023/03/25 08:15:50;;;;;;;2.60;0.65;;;;;;;;;;5020255;28;20076;-62
2023/03/25 08:18:21;;;;;;;0.10;0.10;;;;;;;;;;5019205;28;20048;-64
2023/03/25 08:20:50;;;;;;;0.03;0.03;;;;;;;;;;5021762;28;20049;-63
2023/03/25 08:23:18;;;;;;;0.20;0.10;;;;;;;;;;5024298;28;20091;-63
2023/03/25 08:25:48;;;;;;;0.10;0.10;;;;;;;;;;5021393;28;20046;-63
2023/03/25 08:28:21;;;;;;;0.10;0.10;;;;;;;;;;5023770;28;20063;-64
2023/03/25 08:30:53;;;;;;;0.15;0.15;;;;;;;;;;5018656;28;20497;-63
2023/03/25 08:33:26;;;;;;;0.10;0.10;;;;;;;;;;5018335;28;20077;-64
2023/03/25 08:35:57;;;;;;;0.10;0.10;;;;;;;;;;5019410;28;20079;-66
2023/03/25 08:38:30;;;;;;;0.10;0.10;;;;;;;;;;5020317;28;20042;-64
2023/03/25 08:41:02;;;;;;;0.00;0.00;;;;;;;;;;5022020;28;20049;-63
2023/03/25 08:43:30;;;;;;;0.10;0.10;;;;;;;;;;5018475;28;20123;-64
2023/03/25 08:46:00;;;;;;;0.10;0.10;;;;;;;;;;5020794;28;20046;-65
2023/03/25 08:48:29;;;;;;;0.10;0.10;;;;;;;;;;5019756;28;20504;-63
2023/03/25 08:50:58;;;;;;;0.10;0.10;;;;;;;;;;5022920;28;20585;-63
2023/03/25 08:53:27;;;;;;;1.75;0.30;;;;;;;;;;5020900;28;20559;-62
2023/03/25 08:55:55;;;;;;;0.10;0.10;;;;;;;;;;5017346;28;20697;-63
2023/03/25 08:58:24;;;;;;;0.10;0.10;;;;;;;;;;5017478;28;20588;-65
2023/03/25 09:00:54;;;;;;;0.10;0.10;;;;;;;;;;5019534;28;20132;-65
2023/03/25 09:03:23;;;;;;;0.22;0.22;;;;;;;;;;5018915;28;20057;-64
2023/03/25 09:05:53;;;;;;;0.10;0.10;;;;;;;;;;5019941;28;20053;-64
2023/03/25 09:08:22;;;;;;;0.70;0.17;;;;;;;;;;5019716;28;20061;-63
2023/03/25 09:10:50;;;;;;;1.90;0.17;;;;;;;;;;5021176;28;20056;-63
2023/03/25 09:13:19;;;;;;;0.32;0.22;;;;;;;;;;5016356;28;20064;-62
2023/03/25 09:15:47;;;;;;;10.00;0.55;;;;;;;;;;5017801;28;20699;-63
2023/03/25 09:18:15;;;;;;;0.08;0.08;;;;;;;;;;5020838;28;20149;-64
2023/03/25 09:20:46;;;;;;;7.88;0.20;;;;;;;;;;5020462;28;20053;-66
2023/03/25 09:23:16;;;;;;;0.03;0.03;;;;;;;;;;5021937;28;20049;-66
2023/03/25 09:25:45;;;;;;;0.15;0.15;;;;;;;;;;5016575;28;20133;-65
2023/03/25 09:28:13;;;;;;;0.20;0.20;;;;;;;;;;5019114;28;20132;-65
2023/03/25 09:30:41;;;;;;;0.10;0.10;;;;;;;;;;5020241;28;20632;-66
2023/03/25 09:33:10;;;;;;;0.63;0.20;;;;;;;;;;5022813;28;20057;-66
2023/03/25 09:35:40;;;;;;;0.10;0.10;;;;;;;;;;5023656;28;20136;-66
2023/03/25 09:38:08;;;;;;;0.20;0.20;;;;;;;;;;5020012;28;20056;-66
2023/03/25 09:40:41;;;;;;;0.10;0.10;;;;;;;;;;5022982;28;20532;-66
2023/03/25 09:43:21;;;;;;;0.20;0.10;;;;;;;;;;5021477;28;20045;-66
2023/03/25 09:45:50;;;;;;;0.57;0.57;;;;;;;;;;5020430;28;20678;-65
2023/03/25 09:48:25;;;;;;;0.20;0.20;;;;;;;;;;5023522;28;20120;-65
2023/03/25 09:50:54;;;;;;;2.90;0.57;;;;;;;;;;5013475;28;20049;-65
2023/03/25 09:53:27;;;;;;;0.10;0.10;;;;;;;;;;5020566;28;20053;-65
2023/03/25 09:55:58;;;;;;;0.20;0.20;;;;;;;;;;5012622;28;20077;-65
2023/03/25 09:58:34;;;;;;;0.43;0.10;;;;;;;;;;5025759;28;20045;-65
2023/03/25 10:01:05;;;;;;;0.15;0.15;;;;;;;;;;5022171;28;20045;-66
2023/03/25 10:03:37;;;;;;;0.25;0.20;;;;;;;;;;5023020;28;20489;-64
2023/03/25 10:06:18;;;;;;;0.10;0.10;;;;;;;;;;5020133;28;20084;-65
2023/03/25 10:09:03;;;;;;;0.10;0.10;;;;;;;;;;5021676;28;20052;-64
2023/03/25 10:11:35;;;;;;;0.10;0.10;;;;;;;;;;5021218;28;20395;-66
2023/03/25 10:14:06;;;;;;;0.20;0.20;;;;;;;;;;5021655;28;20144;-65
2023/03/25 10:16:38;;;;;;;0.15;0.15;;;;;;;;;;5022379;28;20161;-66
2023/03/25 10:19:14;;;;;;;0.00;0.00;;;;;;;;;;5020806;28;20042;-66
2023/03/25 10:21:49;;;;;;;1.52;0.28;;;;;;;;;;5022131;28;20380;-65
2023/03/25 10:24:19;;;;;;;0.10;0.10;;;;;;;;;;5021826;28;20041;-65
2023/03/25 10:26:52;;;;;;;0.20;0.15;;;;;;;;;;5016337;28;20105;-66
2023/03/25 10:29:21;;;;;;;2.38;0.35;;;;;;;;;;5019951;28;20052;-66
2023/03/25 10:31:52;;;;;;;0.10;0.10;;;;;;;;;;5029189;28;20480;-66
2023/03/25 10:34:22;;;;;;;0.45;0.30;;;;;;;;;;5024501;28;20739;-66
2023/03/25 10:36:53;;;;;;;0.10;0.10;;;;;;;;;;5023440;28;20068;-66
2023/03/25 10:39:22;;;;;;;0.10;0.10;;;;;;;;;;5021809;28;20583;-66
2023/03/25 10:41:56;;;;;;;0.57;0.30;;;;;;;;;;5021820;28;20052;-66
2023/03/25 10:44:25;;;;;;;0.40;0.20;;;;;;;;;;5024703;28;20073;-66
2023/03/25 10:46:57;;;;;;;4.57;0.15;;;;;;;;;;5019535;28;20045;-65
2023/03/25 10:49:27;;;;;;;0.10;0.10;;;;;;;;;;5015390;28;20049;-65
2023/03/25 10:51:58;;;;;;;0.63;0.13;;;;;;;;;;5025859;28;21448;-66
2023/03/25 10:54:28;;;;;;;0.20;0.20;;;;;;;;;;5021809;28;20091;-66
2023/03/25 10:56:59;;;;;;;0.10;0.10;;;;;;;;;;5022652;28;20045;-66
2023/03/25 10:59:31;;;;;;;0.10;0.10;;;;;;;;;;5020284;28;20048;-65
2023/03/25 11:02:00;;;;;;;0.10;0.10;;;;;;;;;;5019812;28;20053;-66
2023/03/25 11:04:32;;;;;;;0.28;0.28;;;;;;;;;;5020846;28;20054;-66
2023/03/25 11:07:04;;;;;;;0.77;0.20;;;;;;;;;;5018003;28;20060;-66
2023/03/25 11:09:35;;;;;;;0.10;0.10;;;;;;;;;;5020653;28;20306;-67
2023/03/25 11:12:07;;;;;;;0.45;0.45;;;;;;;;;;5018055;28;20549;-66
2023/03/25 11:14:37;;;;;;;0.10;0.10;;;;;;;;;;5019454;28;20060;-64
2023/03/25 11:17:11;;;;;;;0.10;0.10;;;;;;;;;;5024787;28;20349;-64
2023/03/25 11:19:40;;;;;;;0.03;0.03;;;;;;;;;;5025276;28;20513;-64
2023/03/25 11:22:11;;;;;;;0.10;0.10;;;;;;;;;;5022387;28;20099;-66
2023/03/25 11:24:41;;;;;;;0.00;0.00;;;;;;;;;;5023539;28;20136;-66
2023/03/25 11:27:11;;;;;;;0.28;0.10;;;;;;;;;;5028331;28;20111;-66
2023/03/25 11:29:40;;;;;;;1.50;0.20;;;;;;;;;;5025906;28;20137;-65
2023/03/25 11:32:13;;;;;;;0.68;0.20;;;;;;;;;;5027356;28;20037;-66
2023/03/25 11:34:41;;;;;;;0.10;0.10;;;;;;;;;;5028717;28;20080;-65
2023/03/25 11:37:17;;;;;;;0.10;0.10;;;;;;;;;;5026404;28;20049;-65
2023/03/25 11:39:49;;;;;;;0.10;0.10;;;;;;;;;;5023904;28;20183;-66
2023/03/25 11:42:27;;;;;;;0.10;0.10;;;;;;;;;;5023539;28;20141;-66
2023/03/25 11:44:58;;;;;;;0.10;0.10;;;;;;;;;;5020806;28;20479;-65
2023/03/25 11:47:27;;;;;;;0.00;0.00;;;;;;;;;;5021638;28;20107;-65
2023/03/25 11:49:56;;;;;;;0.10;0.10;;;;;;;;;;5023419;28;20053;-66
2023/03/25 11:52:26;;;;;;;0.10;0.08;;;;;;;;;;5025720;28;20133;-66
2023/03/25 11:54:54;;;;;;;0.30;0.13;;;;;;;;;;5020708;28;21280;-66
2023/03/25 11:57:26;;;;;;;0.10;0.10;;;;;;;;;;5019320;28;20396;-66
2023/03/25 11:59:57;;;;;;;;;;;;;;;;;;5013723;28;20049;-65
2023/03/25 12:02:27;;;;;;;0.75;0.10;;;;;;;;;;5025744;28;19921;-65
2023/03/25 12:04:57;;;;;;;0.10;0.10;;;;;;;;;;5028057;28;20654;-65
2023/03/25 12:07:25;;;;;;;0.10;0.10;;;;;;;;;;5022569;28;20076;-65
2023/03/25 12:09:55;;;;;;;0.00;0.00;;;;;;;;;;5027390;28;20056;-65
2023/03/25 12:12:32;;;;;;;0.10;0.10;;;;;;;;;;5024030;28;20072;-65
2023/03/25 12:15:05;;;;;;;0.10;0.10;;;;;;;;;;5021070;28;20049;-64
2023/03/25 12:17:39;;;;;;;0.28;0.28;;;;;;;;;;5027022;28;20418;-65
2023/03/25 12:20:12;;;;;;;0.10;0.10;;;;;;;;;;5023075;28;20950;-65
2023/03/25 12:22:49;;;;;;;0.10;0.10;;;;;;;;;;5026330;28;20061;-64
2023/03/25 12:25:22;;;;;;;0.00;0.00;;;;;;;;;;5021417;28;20052;-65
2023/03/25 12:27:57;;;;;;;0.10;0.10;;;;;;;;;;5021968;28;20080;-66
2023/03/25 12:30:33;;;;;;;0.10;0.10;;;;;;;;;;5022105;28;20525;-64
2023/03/25 12:33:06;;;;;;;0.10;0.10;;;;;;;;;;5022698;28;20050;-63
2023/03/25 12:35:39;;;;;;;0.10;0.10;;;;;;;;;;5025811;28;20098;-65
2023/03/25 12:38:15;;;;;;;0.00;0.00;;;;;;;;;;5026262;28;20068;-65
2023/03/25 12:40:50;;;;;;;0.10;0.10;;;;;;;;;;5024326;28;20053;-66
2023/03/25 12:43:23;;;;;;;0.10;0.10;;;;;;;;;;5021144;28;20140;-66
2023/03/25 12:45:58;;;;;;;0.30;0.10;;;;;;;;;;5025836;28;20046;-63
2023/03/25 12:48:26;;;;;;;;;;;;;;;;;;5024388;28;20056;-65
2023/03/25 12:50:58;;;;;;;0.10;0.10;;;;;;;;;;5018204;28;19929;-65
2023/03/25 12:53:32;;;;;;;0.55;0.20;;;;;;;;;;5028633;28;20128;-64
2023/03/25 12:56:07;;;;;;;0.10;0.10;;;;;;;;;;5025755;28;20081;-64
2023/03/25 12:58:44;;;;;;;0.75;0.20;;;;;;;;;;5027858;28;20065;-65
2023/03/25 13:01:16;;;;;;;0.17;0.17;;;;;;;;;;5027621;28;20055;-64
2023/03/25 13:03:59;;;;;;;0.17;0.08;;;;;;;;;;5026473;28;20061;-64
2023/03/25 13:06:30;;;;;;;0.10;0.10;;;;;;;;;;5022759;28;20049;-64
2023/03/25 13:09:01;;;;;;;0.10;0.10;;;;;;;;;;5025589;28;20620;-66
2023/03/25 13:11:35;;;;;;;0.15;0.15;;;;;;;;;;5023301;28;20049;-64
2023/03/25 13:14:09;;;;;;;0.10;0.10;;;;;;;;;;5020266;28;20081;-66
2023/03/25 13:16:38;;;;;;;0.10;0.10;;;;;;;;;;5022579;28;20099;-65
2023/03/25 13:19:10;;;;;;;0.10;0.10;;;;;;;;;;5024886;28;20049;-65
2023/03/25 13:21:40;;;;;;;0.47;0.35;;;;;;;;;;5021738;28;20140;-64
2023/03/25 13:24:12;;;;;;;0.20;0.20;;;;;;;;;;5024099;28;20049;-64
2023/03/25 13:26:43;;;;;;;0.10;0.10;;;;;;;;;;5019491;28;20128;-64
2023/03/25 13:29:17;;;;;;;0.68;0.10;;;;;;;;;;5022266;28;20566;-64
2023/03/25 13:31:46;;;;;;;0.10;0.10;;;;;;;;;;5021916;28;20046;-66
2023/03/25 13:34:21;;;;;;;0.00;0.00;;;;;;;;;;5023784;28;20506;-64
2023/03/25 13:36:54;;;;;;;0.10;0.10;;;;;;;;;;5021501;28;20077;-64
2023/03/25 13:39:25;;;;;;;0.00;0.00;;;;;;;;;;5023030;28;20086;-65
2023/03/25 13:41:57;;;;;;;0.05;0.05;;;;;;;;;;5025455;28;20165;-66
2023/03/25 13:44:29;;;;;;;0.10;0.10;;;;;;;;;;5019599;28;20375;-66
2023/03/25 13:47:01;;;;;;;0.00;0.00;;;;;;;;;;5023581;28;20044;-64
2023/03/25 13:49:31;;;;;;;0.00;0.00;;;;;;;;;;5024722;28;20053;-64
2023/03/25 13:52:00;;;;;;;0.43;0.20;;;;;;;;;;5022871;28;20502;-64
2023/03/25 13:54:31;;;;;;;0.10;0.10;;;;;;;;;;5023426;28;20236;-66
2023/03/25 13:57:14;;;;;;;0.00;0.00;;;;;;;;;;5016846;28;20137;-65
2023/03/25 13:59:53;;;;;;;0.10;0.10;;;;;;;;;;5020375;28;20129;-64
2023/03/25 14:02:38;;;;;;;0.70;0.10;;;;;;;;;;5022121;28;20051;-64
2023/03/25 14:05:21;;;;;;;0.10;0.10;;;;;;;;;;5019416;28;20140;-66
2023/03/25 14:07:56;;;;;;;0.20;0.20;;;;;;;;;;5021235;28;20504;-65
2023/03/25 14:10:28;;;;;;;0.15;0.15;;;;;;;;;;5021637;28;20588;-65
2023/03/25 14:12:57;;;;;;;0.10;0.10;;;;;;;;;;5014434;28;20076;-64
2023/03/25 14:15:28;;;;;;;0.10;0.10;;;;;;;;;;5021213;28;20136;-64
2023/03/25 14:17:57;;;;;;;0.75;0.20;;;;;;;;;;5012593;28;20053;-65
2023/03/25 14:20:27;;;;;;;0.10;0.10;;;;;;;;;;5020991;28;20078;-65
2023/03/25 14:22:57;;;;;;;0.28;0.20;;;;;;;;;;5022355;28;20081;-66
2023/03/25 14:25:30;;;;;;;0.45;0.13;;;;;;;;;;5021091;28;20041;-66
2023/03/25 14:27:58;;;;;;;0.10;0.10;;;;;;;;;;5022053;28;20502;-65
2023/03/25 14:30:29;;;;;;;0.10;0.10;;;;;;;;;;5020255;28;20183;-65
2023/03/25 14:32:59;;;;;;;0.10;0.10;;;;;;;;;;5024416;28;20061;-63
2023/03/25 14:35:47;;;;;;;0.10;0.10;;;;;;;;;;5020509;28;20100;-66
2023/03/25 14:38:48;;;;;;;0.00;0.00;;;;;;;;;;5021209;28;20041;-66
2023/03/25 14:41:17;;;;;;;0.30;0.10;;;;;;;;;;5023797;28;20774;-64
2023/03/25 14:43:46;;;;;;;0.38;0.10;;;;;;;;;;5023022;28;20131;-64
2023/03/25 14:46:19;;;;;;;0.00;0.00;;;;;;;;;;5021548;28;20050;-65
2023/03/25 14:48:50;;;;;;;0.65;0.13;;;;;;;;;;5023791;28;20046;-66
2023/03/25 14:51:21;;;;;;;0.10;0.10;;;;;;;;;;5021428;28;20406;-66
2023/03/25 14:53:55;;;;;;;0.10;0.10;;;;;;;;;;5023758;28;20144;-65
2023/03/25 14:56:25;;;;;;;0.10;0.10;;;;;;;;;;5022942;28;20494;-65
2023/03/25 14:58:55;;;;;;;0.40;0.10;;;;;;;;;;5015205;28;20054;-65
2023/03/25 15:01:31;;;;;;;0.20;0.10;;;;;;;;;;5022559;28;20144;-66
2023/03/25 15:04:10;;;;;;;0.85;0.20;;;;;;;;;;5022372;28;20057;-66
2023/03/25 15:06:39;;;;;;;0.70;0.20;;;;;;;;;;5025786;28;20081;-65